createdAt,value
2022-12-13T00:02:16.595Z,7.07
2022-12-13T00:04:50.631Z,8.23
2022-12-13T00:07:17.682Z,8.77
2022-12-13T00:09:51.601Z,8.02
2022-12-13T00:12:18.640Z,9.00
2022-12-13T00:14:52.623Z,9.85
2022-12-13T00:17:26.624Z,9.98
2022-12-13T00:20:00.618Z,8.73
2022-12-13T00:22:34.650Z,8.67
2022-12-13T00:25:01.644Z,9.38
2022-12-13T00:27:35.649Z,8.55
2022-12-13T00:30:02.911Z,7.93
2022-12-13T00:32:36.598Z,7.00
2022-12-13T00:35:10.619Z,6.88
2022-12-13T00:37:37.601Z,7.30
2022-12-13T00:40:04.889Z,7.43
2022-12-13T00:42:38.631Z,6.63
2022-12-13T00:45:12.888Z,6.47
2022-12-13T00:47:40.170Z,6.72
2022-12-13T00:50:07.793Z,6.45
2022-12-13T00:52:41.628Z,6.15
2022-12-13T00:55:15.770Z,6.63
2022-12-13T00:57:43.114Z,5.93
2022-12-13T01:00:17.624Z,6.38
2022-12-13T01:02:44.794Z,6.93
2022-12-13T01:05:38.580Z,5.38
2022-12-13T01:08:06.682Z,6.55
2022-12-13T01:10:40.633Z,6.55
2022-12-13T01:13:07.667Z,6.30
2022-12-13T01:15:41.677Z,6.88
2022-12-13T01:18:15.623Z,6.47
2022-12-13T01:20:42.641Z,5.97
2022-12-13T01:23:16.626Z,7.03
2022-12-13T01:25:50.634Z,6.00
2022-12-13T01:28:17.696Z,6.53
2022-12-13T01:30:51.684Z,6.53
2022-12-13T01:33:18.735Z,5.97
2022-12-13T01:35:52.673Z,5.97
2022-12-13T01:38:28.947Z,6.67
2022-12-13T01:41:17.016Z,6.50
2022-12-13T01:43:51.752Z,6.22
2022-12-13T01:46:25.629Z,6.30
2022-12-13T01:49:23.665Z,6.30
2022-12-13T01:51:59.257Z,6.47
2022-12-13T01:54:39.675Z,6.00
2022-12-13T01:57:16.147Z,6.10
2022-12-13T01:59:50.623Z,6.38
2022-12-13T02:02:24.677Z,5.85
2022-12-13T02:05:14.390Z,6.97
2022-12-13T02:07:50.698Z,6.03
2022-12-13T02:10:24.653Z,5.45
2022-12-13T02:12:58.646Z,5.73
2022-12-13T02:15:30.562Z,6.32
2022-12-13T02:18:22.657Z,6.38
2022-12-13T02:21:19.015Z,6.32
2022-12-13T02:24:16.662Z,5.40
2022-12-13T02:27:30.887Z,5.40
2022-12-13T02:30:29.633Z,5.80
2022-12-13T02:33:22.036Z,6.03
2022-12-13T02:36:09.328Z,5.68
2022-12-13T02:38:54.987Z,5.35
2022-12-13T02:41:51.652Z,5.80
2022-12-13T02:44:48.628Z,5.18
2022-12-13T02:47:22.053Z,5.80
2022-12-13T02:50:00.625Z,4.78
2022-12-13T02:52:31.182Z,5.10
2022-12-13T02:55:05.647Z,5.75
2022-12-13T02:57:42.642Z,5.35
2022-12-13T03:00:22.766Z,5.45
2022-12-13T03:03:30.691Z,5.43
2022-12-13T03:06:23.869Z,5.32
2022-12-13T03:09:18.608Z,5.93
2022-12-13T03:12:16.263Z,5.80
2022-12-13T03:15:02.644Z,5.72
2022-12-13T03:17:37.310Z,5.07
2022-12-13T03:20:12.800Z,4.78
2022-12-13T03:22:50.154Z,5.60
2022-12-13T03:25:30.597Z,4.35
2022-12-13T03:28:01.993Z,4.60
2022-12-13T03:30:37.657Z,4.70
2022-12-13T03:33:11.673Z,4.22
2022-12-13T03:35:50.633Z,4.80
2022-12-13T03:38:22.181Z,5.22
2022-12-13T03:41:02.638Z,3.65
2022-12-13T03:43:36.827Z,4.97
2022-12-13T03:46:16.687Z,4.60
2022-12-13T03:48:50.645Z,4.82
2022-12-13T03:51:24.643Z,4.93
2022-12-13T03:53:51.654Z,4.90
2022-12-13T03:56:25.610Z,5.13
2022-12-13T03:58:52.686Z,5.20
2022-12-13T04:01:26.702Z,5.15
2022-12-13T04:04:00.636Z,4.80
2022-12-13T04:06:34.685Z,4.30
2022-12-13T04:09:01.754Z,5.37
2022-12-13T04:11:53.649Z,5.53
2022-12-13T04:14:22.565Z,5.55
2022-12-13T04:16:57.636Z,6.05
2022-12-13T04:19:31.676Z,5.68
2022-12-13T04:21:58.667Z,6.30
2022-12-13T04:24:32.685Z,5.25
2022-12-13T04:27:01.513Z,5.60
2022-12-13T04:29:35.658Z,6.18
2022-12-13T04:32:04.486Z,5.82
2022-12-13T04:34:38.616Z,6.60
2022-12-13T04:37:06.711Z,6.95
2022-12-13T04:39:40.652Z,5.38
2022-12-13T04:42:22.624Z,6.97
2022-12-13T04:44:56.837Z,6.88
2022-12-13T04:47:30.636Z,6.72
2022-12-13T04:49:57.676Z,6.43
2022-12-13T04:52:24.797Z,6.90
2022-12-13T04:54:58.600Z,6.28
2022-12-13T04:57:25.666Z,6.28
2022-12-13T04:59:59.612Z,6.43
2022-12-13T05:02:33.703Z,6.70
2022-12-13T05:05:00.808Z,7.85
2022-12-13T05:07:34.640Z,5.90
2022-12-13T05:10:10.238Z,6.32
2022-12-13T05:12:43.631Z,6.75
2022-12-13T05:15:10.730Z,6.22
2022-12-13T05:17:44.637Z,5.72
2022-12-13T05:20:11.730Z,6.67
2022-12-13T05:22:45.602Z,5.97
2022-12-13T05:25:19.662Z,7.13
2022-12-13T05:27:46.596Z,6.72
2022-12-13T05:30:20.657Z,6.03
2022-12-13T05:32:54.642Z,8.13
2022-12-13T05:35:22.734Z,6.87
2022-12-13T05:38:00.671Z,7.68
2022-12-13T05:40:36.641Z,5.68
2022-12-13T05:43:22.279Z,5.80
2022-12-13T05:46:03.891Z,6.25
2022-12-13T05:48:37.676Z,6.00
2022-12-13T05:51:10.594Z,5.53
2022-12-13T05:53:53.066Z,5.78
2022-12-13T05:56:23.119Z,6.18
2022-12-13T05:58:57.626Z,6.70
2022-12-13T06:01:31.661Z,6.13
2022-12-13T06:03:58.726Z,6.30
2022-12-13T06:06:32.632Z,6.47
2022-12-13T06:08:59.973Z,6.57
2022-12-13T06:11:33.615Z,5.85
2022-12-13T06:14:01.249Z,5.75
2022-12-13T06:16:34.665Z,7.95
2022-12-13T06:19:04.614Z,7.40
2022-12-13T06:21:45.825Z,6.28
2022-12-13T06:24:18.567Z,6.28
2022-12-13T06:26:52.722Z,6.40
2022-12-13T06:29:24.464Z,6.43
2022-12-13T06:32:09.610Z,6.68
2022-12-13T06:34:43.683Z,6.90
2022-12-13T06:37:20.651Z,7.18
2022-12-13T06:39:54.638Z,7.35
2022-12-13T06:42:41.630Z,9.13
2022-12-13T06:45:15.623Z,6.85
2022-12-13T06:47:42.621Z,6.90
2022-12-13T06:50:16.634Z,7.97
2022-12-13T06:52:45.861Z,7.57
2022-12-13T06:55:23.997Z,8.10
2022-12-13T06:57:51.923Z,7.60
2022-12-13T07:00:35.576Z,8.70
2022-12-13T07:03:04.263Z,6.75
2022-12-13T07:05:37.686Z,6.75
2022-12-13T07:08:10.377Z,6.28
2022-12-13T07:10:46.631Z,6.50
2022-12-13T07:13:17.304Z,7.47
2022-12-13T07:15:52.664Z,6.70
2022-12-13T07:18:28.400Z,8.50
2022-12-13T07:21:01.684Z,7.30
2022-12-13T07:23:28.687Z,7.15
2022-12-13T07:26:02.656Z,5.95
2022-12-13T07:28:33.248Z,6.27
2022-12-13T07:31:12.652Z,7.32
2022-12-13T07:33:40.725Z,7.03
2022-12-13T07:36:26.884Z,9.30
2022-12-13T07:38:55.864Z,8.27
2022-12-13T07:41:30.700Z,8.13
2022-12-13T07:46:37.686Z,6.93
2022-12-13T07:49:05.632Z,6.78
2022-12-13T07:51:42.865Z,6.53
2022-12-13T07:54:09.921Z,6.15
2022-12-13T07:56:43.705Z,6.13
2022-12-13T07:59:11.086Z,6.10
2022-12-13T08:01:44.661Z,6.13
2022-12-13T08:04:11.700Z,6.30
2022-12-13T08:06:45.632Z,6.22
2022-12-13T08:09:12.624Z,6.13
2022-12-13T08:11:46.659Z,6.13
2022-12-13T08:14:13.594Z,6.40
2022-12-13T08:16:47.691Z,5.68
2022-12-13T08:19:14.743Z,5.47
2022-12-13T08:21:57.742Z,6.72
2022-12-13T08:24:27.283Z,7.05
2022-12-13T08:27:01.898Z,7.72
2022-12-13T08:32:15.671Z,7.28
2022-12-13T08:34:42.812Z,7.57
2022-12-13T08:37:16.739Z,7.72
2022-12-13T08:39:44.784Z,6.60
2022-12-13T08:42:23.684Z,7.72
2022-12-13T08:44:58.788Z,6.68
2022-12-13T08:47:39.872Z,5.25
2022-12-13T08:50:09.167Z,5.40
2022-12-13T08:52:43.659Z,5.40
2022-12-13T08:55:12.632Z,4.53
2022-12-13T08:57:47.676Z,5.53
2022-12-13T09:02:57.678Z,4.05
2022-12-13T09:05:33.637Z,4.40
2022-12-13T09:08:24.695Z,3.30
2022-12-13T09:11:11.180Z,3.65
2022-12-13T09:13:48.043Z,4.57
2022-12-13T09:16:26.782Z,3.85
2022-12-13T09:18:55.842Z,3.92
2022-12-13T09:21:31.028Z,3.60
2022-12-13T09:24:01.329Z,3.65
2022-12-13T09:26:38.359Z,3.80
2022-12-13T09:29:11.106Z,3.42
2022-12-13T09:31:52.638Z,4.85
2022-12-13T09:34:26.704Z,4.53
2022-12-13T09:37:23.055Z,4.28
2022-12-13T09:40:15.762Z,4.53
2022-12-13T09:43:12.429Z,4.38
2022-12-13T09:45:45.598Z,4.03
2022-12-13T09:48:24.873Z,4.97
2022-12-13T09:51:16.571Z,5.68
2022-12-13T09:53:47.662Z,6.75
2022-12-13T09:56:30.688Z,5.28
2022-12-13T09:58:57.897Z,6.55
2022-12-13T10:01:31.802Z,5.00
2022-12-13T10:04:00.376Z,4.32
2022-12-13T10:06:39.647Z,4.75
2022-12-13T10:09:12.866Z,4.20
2022-12-13T10:11:58.701Z,3.50
2022-12-13T10:14:41.704Z,3.65
2022-12-13T10:17:21.667Z,3.97
2022-12-13T10:19:59.658Z,4.13
2022-12-13T10:22:26.779Z,3.30
2022-12-13T10:25:10.683Z,3.10
2022-12-13T10:27:47.581Z,2.97
2022-12-13T10:30:32.039Z,3.63
2022-12-13T10:33:02.794Z,3.80
2022-12-13T10:35:42.662Z,3.17
2022-12-13T10:38:12.263Z,3.65
2022-12-13T10:40:52.706Z,3.50
2022-12-13T10:43:42.701Z,3.42
2022-12-13T10:46:26.721Z,3.60
2022-12-13T10:48:53.816Z,4.47
2022-12-13T10:51:29.678Z,4.22
2022-12-13T10:54:00.523Z,3.78
2022-12-13T10:56:48.641Z,4.05
2022-12-13T10:59:20.945Z,3.92
2022-12-13T11:01:54.718Z,3.92
2022-12-13T11:04:29.838Z,3.97
2022-12-13T11:07:05.772Z,3.35
2022-12-13T11:09:39.135Z,3.97
2022-12-13T11:12:26.648Z,3.30
2022-12-13T11:15:00.836Z,3.22
2022-12-13T11:17:37.654Z,3.80
2022-12-13T11:20:16.173Z,4.25
2022-12-13T11:22:50.717Z,4.25
2022-12-13T11:25:24.257Z,3.75
2022-12-13T11:28:26.444Z,4.57
2022-12-13T11:31:29.776Z,3.30
2022-12-13T11:34:21.463Z,3.63
2022-12-13T11:37:17.683Z,3.25
2022-12-13T11:40:11.254Z,3.70
2022-12-13T11:43:01.693Z,4.38
2022-12-13T11:45:43.797Z,4.03
2022-12-13T11:48:24.024Z,4.13
2022-12-13T11:50:53.876Z,3.60
2022-12-13T11:53:36.716Z,3.28
2022-12-13T11:56:19.866Z,3.85
2022-12-13T11:59:24.071Z,2.95
2022-12-13T12:01:55.845Z,2.65
2022-12-13T12:05:05.696Z,3.42
2022-12-13T12:07:58.451Z,3.85
2022-12-13T12:10:50.143Z,3.80
2022-12-13T12:13:30.656Z,3.65
2022-12-13T12:16:31.726Z,3.90
2022-12-13T12:19:06.016Z,3.38
2022-12-13T12:22:12.220Z,4.15
2022-12-13T12:24:53.710Z,3.15
2022-12-13T12:27:22.608Z,3.70
2022-12-13T12:30:30.753Z,4.13
2022-12-13T12:33:14.716Z,4.32
2022-12-13T12:35:52.223Z,5.63
2022-12-13T12:38:44.763Z,5.03
2022-12-13T12:41:45.575Z,4.97
2022-12-13T12:44:30.540Z,5.05
2022-12-13T12:50:37.854Z,4.50
2022-12-13T12:53:43.712Z,4.95
2022-12-13T12:56:48.688Z,4.63
2022-12-13T12:59:41.679Z,4.60
2022-12-13T13:02:25.795Z,4.93
2022-12-13T13:05:06.843Z,5.03
2022-12-13T13:07:51.433Z,4.80
2022-12-13T13:10:27.469Z,4.72
2022-12-13T13:13:11.358Z,4.60
2022-12-13T13:15:45.756Z,5.68
2022-12-13T13:18:55.710Z,5.70
2022-12-13T13:21:38.723Z,4.95
2022-12-13T13:24:08.836Z,5.10
2022-12-13T13:26:51.712Z,4.78
2022-12-13T13:29:27.640Z,4.80
2022-12-13T13:32:29.677Z,5.20
2022-12-13T13:35:44.713Z,4.72
2022-12-13T13:38:23.243Z,3.63
2022-12-13T13:40:57.712Z,4.38
2022-12-13T13:43:38.178Z,4.55
2022-12-13T13:46:18.739Z,4.05
2022-12-13T13:49:18.804Z,4.80
2022-12-13T13:52:26.622Z,5.28
2022-12-13T13:55:41.704Z,5.57
2022-12-13T13:58:34.472Z,4.00
2022-12-13T14:01:17.822Z,5.28
2022-12-13T14:04:18.732Z,4.68
2022-12-13T14:07:30.873Z,5.28
2022-12-13T14:10:22.714Z,5.70
2022-12-13T14:13:44.460Z,4.68
2022-12-13T14:16:33.775Z,4.90
2022-12-13T14:19:18.974Z,5.35
2022-12-13T14:22:34.823Z,5.22
2022-12-13T14:25:26.632Z,4.80
2022-12-13T14:28:29.367Z,4.65
2022-12-13T14:30:57.360Z,4.22
2022-12-13T14:33:32.724Z,4.88
2022-12-13T14:36:02.143Z,4.55
2022-12-13T14:38:37.722Z,4.65
2022-12-13T14:41:06.315Z,4.38
2022-12-13T14:43:46.971Z,3.70
2022-12-13T14:46:23.922Z,4.35
2022-12-13T14:49:07.528Z,5.23
2022-12-13T14:51:37.978Z,4.13
2022-12-13T14:54:14.755Z,3.50
2022-12-13T14:57:02.756Z,5.30
2022-12-13T14:59:30.663Z,5.03
2022-12-13T15:02:09.744Z,4.95
2022-12-13T15:04:38.045Z,5.20
2022-12-13T15:07:14.724Z,4.63
2022-12-13T15:09:44.354Z,4.82
2022-12-13T15:12:25.804Z,6.15
2022-12-13T15:15:00.893Z,6.15
2022-12-13T15:17:43.685Z,5.05
2022-12-13T15:20:30.481Z,4.97
2022-12-13T15:23:32.739Z,6.10
2022-12-13T15:26:03.716Z,5.32
2022-12-13T15:28:41.726Z,4.75
2022-12-13T15:31:09.877Z,4.57
2022-12-13T15:33:48.572Z,6.22
2022-12-13T15:36:28.191Z,6.10
2022-12-13T15:39:01.685Z,5.35
2022-12-13T15:41:44.868Z,6.13
2022-12-13T15:44:35.735Z,6.00
2022-12-13T15:47:28.365Z,5.22
2022-12-13T15:50:11.734Z,5.15
2022-12-13T15:52:40.856Z,4.75
2022-12-13T15:55:19.649Z,5.10
2022-12-13T15:57:58.739Z,4.25
2022-12-13T16:00:35.704Z,4.57
2022-12-13T16:03:19.742Z,5.55
2022-12-13T16:05:57.317Z,4.55
2022-12-13T16:08:44.775Z,3.90
2022-12-13T16:11:12.135Z,4.55
2022-12-13T16:13:47.607Z,3.90
2022-12-13T16:16:34.837Z,6.20
2022-12-13T16:19:01.886Z,4.82
2022-12-13T16:21:36.704Z,6.30
2022-12-13T16:24:03.810Z,5.63
2022-12-13T16:26:39.568Z,6.00
2022-12-13T16:29:11.997Z,6.18
2022-12-13T16:31:45.767Z,6.93
2022-12-13T16:34:13.991Z,6.80
2022-12-13T16:36:50.727Z,7.55
2022-12-13T16:39:17.788Z,7.97
2022-12-13T16:41:53.747Z,7.78
2022-12-13T16:44:41.726Z,8.60
2022-12-13T16:47:24.684Z,8.55
2022-12-13T16:50:00.730Z,8.27
2022-12-13T16:52:34.699Z,7.38
2022-12-13T16:55:01.757Z,7.63
2022-12-13T16:57:35.704Z,6.80
2022-12-13T17:00:03.383Z,5.53
2022-12-13T17:02:36.794Z,6.78
2022-12-13T17:05:05.305Z,6.65
2022-12-13T17:07:38.746Z,7.47
2022-12-13T17:10:13.715Z,7.10
2022-12-13T17:15:15.786Z,7.07
2022-12-13T17:17:46.827Z,6.88
2022-12-13T17:20:24.739Z,5.82
2022-12-13T17:22:52.388Z,7.70
2022-12-13T17:25:25.707Z,7.78
2022-12-13T17:27:52.725Z,6.65
2022-12-13T17:30:26.793Z,6.60
2022-12-13T17:33:00.729Z,6.30
2022-12-13T17:35:34.725Z,6.47
2022-12-13T17:38:01.733Z,7.17
2022-12-13T17:40:28.726Z,7.55
2022-12-13T17:43:02.696Z,7.32
2022-12-13T17:45:35.869Z,8.35
2022-12-13T17:48:09.697Z,7.20
2022-12-13T17:50:46.689Z,7.63
2022-12-13T17:53:13.673Z,8.10
2022-12-13T17:55:47.695Z,8.88
2022-12-13T17:58:21.705Z,8.13
2022-12-13T18:00:48.864Z,8.33
2022-12-13T18:03:22.929Z,8.52
2022-12-13T18:06:00.286Z,8.80
2022-12-13T18:08:34.674Z,7.18
2022-12-13T18:11:31.248Z,7.63
2022-12-13T18:13:55.827Z,7.20
2022-12-13T18:16:32.102Z,8.27
2022-12-13T18:19:09.727Z,6.88
2022-12-13T18:21:37.554Z,7.63
2022-12-13T18:24:16.723Z,6.75
2022-12-13T18:26:50.734Z,7.53
2022-12-13T18:29:24.713Z,7.93
2022-12-13T18:31:58.768Z,6.17
2022-12-13T18:34:32.793Z,7.27
2022-12-13T18:37:06.815Z,7.50
2022-12-13T18:39:35.134Z,6.67
2022-12-13T18:42:08.863Z,6.80
2022-12-13T18:44:42.842Z,8.60
2022-12-13T18:47:34.775Z,8.75
2022-12-13T18:50:08.803Z,7.13
2022-12-13T18:52:35.839Z,8.40
2022-12-13T18:55:09.825Z,7.90
2022-12-13T18:57:36.829Z,8.10
2022-12-13T19:00:11.753Z,7.57
2022-12-13T19:05:12.855Z,8.30
2022-12-13T19:07:46.798Z,9.05
2022-12-13T19:10:20.778Z,7.53
2022-12-13T19:12:54.853Z,8.95
2022-12-13T19:15:21.983Z,9.30
2022-12-13T19:17:49.113Z,9.52
2022-12-13T19:20:23.838Z,10.30
2022-12-13T19:22:50.914Z,10.00
2022-12-13T19:25:25.003Z,9.05
2022-12-13T19:27:56.801Z,7.95
2022-12-13T19:30:31.098Z,8.38
2022-12-13T19:33:04.732Z,8.05
2022-12-13T19:35:38.920Z,8.20
2022-12-13T19:38:05.964Z,8.32
2022-12-13T19:40:47.724Z,8.48
2022-12-13T19:43:26.764Z,8.60
2022-12-13T19:46:11.873Z,8.60
2022-12-13T19:48:45.731Z,8.07
2022-12-13T19:51:12.674Z,8.38
2022-12-13T19:53:40.086Z,7.32
2022-12-13T19:56:18.818Z,8.70
2022-12-13T19:58:53.838Z,8.25
2022-12-13T20:01:21.336Z,8.40
2022-12-13T20:03:54.760Z,7.28
2022-12-13T20:06:23.429Z,7.97
2022-12-13T20:08:58.074Z,8.02
2022-12-13T20:11:32.780Z,8.07
2022-12-13T20:13:59.818Z,7.87
2022-12-13T20:16:34.815Z,7.45
2022-12-13T20:19:03.057Z,7.50
2022-12-13T20:21:36.915Z,8.95
2022-12-13T20:24:04.218Z,9.07
2022-12-13T20:26:38.804Z,7.82
2022-12-13T20:29:12.752Z,8.18
2022-12-13T20:31:48.300Z,9.13
2022-12-13T20:34:16.420Z,8.95
2022-12-13T20:36:50.747Z,8.80
2022-12-13T20:39:17.779Z,7.70
2022-12-13T20:41:44.825Z,8.05
2022-12-13T20:44:19.794Z,7.28
2022-12-13T20:46:53.917Z,7.85
2022-12-13T20:49:27.738Z,7.75
2022-12-13T20:51:54.694Z,6.38
2022-12-13T20:54:28.766Z,7.03
2022-12-13T20:57:02.754Z,8.23
2022-12-13T20:59:29.729Z,7.27
2022-12-13T21:02:03.851Z,6.65
2022-12-13T21:04:31.128Z,6.75
2022-12-13T21:07:04.819Z,6.15
2022-12-13T21:09:31.943Z,6.35
2022-12-13T21:12:05.903Z,6.03
2022-12-13T21:14:33.893Z,6.37
2022-12-13T21:17:08.959Z,8.10
2022-12-13T21:19:43.999Z,7.93
2022-12-13T21:22:22.939Z,7.72
2022-12-13T21:24:49.979Z,7.03
2022-12-13T21:27:23.769Z,8.95
2022-12-13T21:29:57.721Z,7.72
2022-12-13T21:32:24.672Z,8.03
2022-12-13T21:34:57.776Z,8.45
2022-12-13T21:37:25.947Z,8.68
2022-12-13T21:39:59.771Z,7.60
2022-12-13T21:42:26.762Z,8.13
2022-12-13T21:45:06.811Z,8.38
2022-12-13T21:47:40.584Z,8.32
2022-12-13T21:50:15.826Z,7.20
2022-12-13T21:52:47.975Z,7.53
2022-12-13T21:55:38.836Z,7.47
2022-12-13T21:58:27.954Z,8.55
2022-12-13T22:01:02.009Z,7.43
2022-12-13T22:03:29.193Z,8.27
2022-12-13T22:06:07.440Z,8.30
2022-12-13T22:08:39.376Z,7.93
2022-12-13T22:11:24.763Z,8.43
2022-12-13T22:13:57.982Z,6.18
2022-12-13T22:16:39.931Z,7.63
2022-12-13T22:19:14.878Z,6.22
2022-12-13T22:24:24.985Z,6.70
2022-12-13T22:27:01.688Z,8.45
2022-12-13T22:29:32.255Z,8.30
2022-12-13T22:32:07.912Z,8.20
2022-12-13T22:34:38.939Z,8.15
2022-12-13T22:37:14.996Z,7.28
2022-12-13T22:39:50.664Z,6.97
2022-12-13T22:42:17.760Z,7.60
2022-12-13T22:44:51.793Z,6.75
2022-12-13T22:47:24.967Z,5.63
2022-12-13T22:49:58.792Z,7.13
2022-12-13T22:52:30.456Z,6.78
2022-12-13T22:55:07.814Z,7.13
2022-12-13T22:57:34.933Z,6.73
2022-12-13T23:00:08.873Z,6.15
2022-12-13T23:02:38.818Z,7.37
2022-12-13T23:05:12.750Z,6.00
2022-12-13T23:07:39.770Z,7.25
2022-12-13T23:10:33.801Z,7.30
2022-12-13T23:13:03.735Z,6.85
2022-12-13T23:15:37.746Z,6.15
2022-12-13T23:18:04.833Z,7.33
2022-12-13T23:20:40.841Z,6.88
2022-12-13T23:23:14.776Z,6.57
2022-12-13T23:25:41.771Z,6.80
2022-12-13T23:28:15.761Z,6.32
2022-12-13T23:30:43.018Z,7.23
2022-12-13T23:33:16.780Z,6.60
2022-12-13T23:35:43.872Z,6.55
2022-12-13T23:38:17.920Z,6.47
2022-12-13T23:40:45.095Z,6.23
2022-12-13T23:43:18.810Z,5.97
2022-12-13T23:46:05.824Z,5.60
2022-12-13T23:48:36.138Z,7.32
2022-12-13T23:51:11.781Z,5.65
2022-12-13T23:53:48.205Z,5.82
2022-12-13T23:56:17.030Z,6.40
2022-12-13T23:58:52.744Z,6.15
